Aviation Digital Data Service (ADDS)

Output produced by METARs form (0330 UTC 24 June 2021)
found at http://aviationweather.gov/metar/data/
 
METAR text: KRNT 240253Z 34006KT 10SM CLR 24/12 A2994 RMK AO2 SLP142 T02390122 53001
Conditions at: KRNT (RENTON , WA, US) observed 0253 UTC 24 June 2021
Temperature: 23.9°C (75°F)
Dewpoint: 12.2°C (54°F) [RH = 48%]
Pressure (altimeter): 29.94 inches Hg (1014.0 mb)
[Sea-level pressure: 1014.2 mb]
Winds: from the NNW (340 degrees) at 7 MPH (6 knots; 3.1 m/s)
Visibility: 10 or more miles (16+ km)
Ceiling: at least 12,000 feet AGL
Clouds: sky clear below 12,000 feet AGL
Weather: no significant weather observed at this time

METAR text: KRNT 240153Z 35005KT 10SM CLR 26/09 A2993 RMK AO2 SLP139 T02610089
Conditions at: KRNT (RENTON , WA, US) observed 0153 UTC 24 June 2021
Temperature: 26.1°C (79°F)
Dewpoint: 8.9°C (48°F) [RH = 34%]
Pressure (altimeter): 29.93 inches Hg (1013.6 mb)
[Sea-level pressure: 1013.9 mb]
Winds: from the N (350 degrees) at 6 MPH (5 knots; 2.6 m/s)
Visibility: 10 or more miles (16+ km)
Ceiling: at least 12,000 feet AGL
Clouds: sky clear below 12,000 feet AGL
Weather: no significant weather observed at this time